Time;durP1;ratioP1;P1;durP2;ratioP2;P2;SDS_P1;SDS_P2;PMS_P1;PMS_P2;Temp;Humidity;BMP_temperature;BMP_pressure;BME280_temperature;BME280_humidity;BME280_pressure;Samples;Min_cycle;Max_cycle;Signal;HPM_P1;HPM_P2
2024/03/31 00:00:00;;;;;;;;;;;12.80;99.90;;;;;;5233738;23;19932;-79
2024/03/31 00:02:46;;;;;;;;;;;12.80;99.90;;;;;;5043835;28;19914;-79
2024/03/31 00:05:12;;;;;;;;;;;12.80;99.90;;;;;;5044559;28;19928;-79
2024/03/31 00:07:37;;;;;;;;;;;12.80;99.90;;;;;;5047833;28;20277;-80
2024/03/31 00:10:03;;;;;;;;;;;12.80;99.90;;;;;;5036102;28;19917;-77
2024/03/31 00:12:30;;;;;;;;;;;12.80;99.90;;;;;;5020102;28;20051;-77
2024/03/31 00:14:55;;;;;;;;;;;12.80;99.90;;;;;;5020203;28;19986;-77
2024/03/31 00:17:21;;;;;;;;;;;12.80;99.90;;;;;;5037015;28;19917;-77
2024/03/31 00:19:47;;;;;;;;;;;12.70;99.90;;;;;;5028701;28;19971;-77
2024/03/31 00:22:12;;;;;;;;;;;12.70;99.90;;;;;;5016944;28;19924;-77
2024/03/31 00:24:38;;;;;;;;;;;12.70;99.90;;;;;;5047333;28;19925;-77
2024/03/31 00:27:04;;;;;;;;;;;12.70;99.90;;;;;;5037163;28;19917;-77
2024/03/31 00:29:30;;;;;;;;;;;12.70;99.90;;;;;;5022878;28;20295;-78
2024/03/31 00:31:55;;;;;;;;;;;12.70;99.90;;;;;;5020546;28;19913;-77
2024/03/31 00:34:24;;;;;;;;;;;12.70;99.90;;;;;;5027371;28;20028;-77
2024/03/31 00:36:49;;;;;;;;;;;12.60;99.90;;;;;;5020150;28;19923;-77
2024/03/31 00:39:16;;;;;;;;;;;12.70;99.90;;;;;;5036883;28;19913;-78
2024/03/31 00:41:41;;;;;;;;;;;12.60;99.90;;;;;;5039016;28;19967;-76
2024/03/31 00:44:07;;;;;;;;;;;12.60;99.90;;;;;;5037235;28;20396;-77
2024/03/31 00:46:34;;;;;;;;;;;12.70;99.90;;;;;;5057212;28;19960;-77
2024/03/31 00:49:00;;;;;;;;;;;12.60;99.90;;;;;;5021417;28;19928;-77
2024/03/31 00:51:25;;;;;;;;;;;12.60;99.90;;;;;;5044182;28;20240;-77
2024/03/31 00:53:51;;;;;;;;;;;12.60;99.90;;;;;;5040336;28;19924;-76
2024/03/31 00:56:16;;;;;;;;;;;12.60;99.90;;;;;;5037430;28;19988;-76
2024/03/31 00:58:42;;;;;;;;;;;12.60;99.90;;;;;;5054932;28;19916;-76
2024/03/31 01:01:10;;;;;;;;;;;12.60;99.90;;;;;;5055301;28;19924;-76
2024/03/31 01:03:35;;;;;;;;;;;12.60;99.90;;;;;;5022753;28;20321;-75
2024/03/31 01:06:05;;;;;;;;;;;12.70;99.90;;;;;;5056399;28;19913;-76
2024/03/31 01:08:31;;;;;;;;;;;12.70;99.90;;;;;;5044056;28;19928;-77
2024/03/31 01:10:56;;;;;;;;;;;12.60;99.90;;;;;;5055749;28;19948;-76
2024/03/31 01:13:22;;;;;;;;;;;12.60;99.90;;;;;;5038444;28;19984;-77
2024/03/31 01:15:47;;;;;;;;;;;12.60;99.90;;;;;;5066372;28;20019;-77
2024/03/31 01:18:13;;;;;;;;;;;12.60;99.90;;;;;;5053125;28;19941;-77
2024/03/31 01:20:40;;;;;;;;;;;12.60;99.90;;;;;;5052832;28;19919;-77
2024/03/31 01:23:06;;;;;;;;;;;12.60;99.90;;;;;;5032379;28;19929;-77
2024/03/31 01:25:36;;;;;;;;;;;12.60;99.90;;;;;;5036176;28;20396;-76
2024/03/31 01:28:02;;;;;;;;;;;12.60;99.90;;;;;;5044072;28;19928;-77
2024/03/31 01:30:28;;;;;;;;;;;12.50;99.90;;;;;;5039939;28;19925;-77
2024/03/31 01:32:55;;;;;;;;;;;12.50;99.90;;;;;;5018478;28;19917;-77
2024/03/31 01:35:20;;;;;;;;;;;12.50;99.90;;;;;;5017938;28;19982;-77
2024/03/31 01:37:49;;;;;;;;;;;12.50;99.90;;;;;;5034916;28;20019;-77
2024/03/31 01:40:15;;;;;;;;;;;12.40;99.90;;;;;;5039772;28;20018;-77
2024/03/31 01:42:44;;;;;;;;;;;12.40;99.90;;;;;;5048858;28;19963;-77
2024/03/31 01:45:13;;;;;;;;;;;12.40;99.90;;;;;;5052263;28;20313;-77
2024/03/31 01:47:39;;;;;;;;;;;12.40;99.90;;;;;;5016392;28;20669;-77
2024/03/31 01:50:07;;;;;;;;;;;12.40;99.90;;;;;;5036071;28;19913;-77
2024/03/31 01:52:32;;;;;;;;;;;12.40;99.90;;;;;;5035699;28;19913;-77
2024/03/31 01:54:58;;;;;;;;;;;12.40;99.90;;;;;;5002414;28;20003;-77
2024/03/31 01:57:24;;;;;;;;;;;12.40;99.90;;;;;;5036728;28;19971;-77
2024/03/31 01:59:49;;;;;;;;;;;12.40;99.90;;;;;;5018649;28;20648;-77
2024/03/31 02:02:15;;;;;;;;;;;12.40;99.90;;;;;;5051874;28;20230;-77
2024/03/31 02:04:41;;;;;;;;;;;12.40;99.90;;;;;;5034684;28;19914;-76
2024/03/31 02:07:06;;;;;;;;;;;12.30;99.90;;;;;;5034971;28;19913;-77
2024/03/31 02:09:32;;;;;;;;;;;12.30;99.90;;;;;;5037527;28;20457;-77
2024/03/31 02:11:57;;;;;;;;;;;12.30;99.90;;;;;;5034698;28;20248;-77
2024/03/31 02:14:23;;;;;;;;;;;12.20;99.90;;;;;;5014059;28;19922;-77
2024/03/31 02:16:49;;;;;;;;;;;12.20;99.90;;;;;;5031031;28;19917;-77
2024/03/31 02:19:14;;;;;;;;;;;12.20;99.90;;;;;;5049679;28;19960;-77
2024/03/31 02:21:40;;;;;;;;;;;12.10;99.90;;;;;;5039611;28;19913;-77
2024/03/31 02:24:06;;;;;;;;;;;12.10;99.90;;;;;;5034523;28;19939;-77
2024/03/31 02:26:31;;;;;;;;;;;12.10;99.90;;;;;;5003414;28;19991;-77
2024/03/31 02:28:57;;;;;;;;;;;12.00;99.90;;;;;;5015134;28;19992;-77
2024/03/31 02:31:23;;;;;;;;;;;12.00;99.90;;;;;;5036528;28;19913;-77
2024/03/31 02:33:48;;;;;;;;;;;12.00;99.90;;;;;;5033915;28;19917;-78
2024/03/31 02:36:14;;;;;;;;;;;12.10;99.90;;;;;;5034246;28;19934;-77
2024/03/31 02:38:39;;;;;;;;;;;12.10;99.90;;;;;;5036058;28;20678;-77
2024/03/31 02:41:05;;;;;;;;;;;12.10;99.90;;;;;;5034686;28;19917;-77
2024/03/31 02:43:31;;;;;;;;;;;12.10;99.90;;;;;;5034189;28;20252;-77
2024/03/31 02:45:56;;;;;;;;;;;12.10;99.90;;;;;;5034162;28;19921;-78
2024/03/31 02:48:22;;;;;;;;;;;12.10;99.90;;;;;;5036236;28;20529;-77
2024/03/31 02:50:48;;;;;;;;;;;12.10;99.90;;;;;;5045768;28;19924;-77
2024/03/31 02:53:13;;;;;;;;;;;12.00;99.90;;;;;;5023219;28;19913;-77
2024/03/31 02:55:39;;;;;;;;;;;12.00;99.90;;;;;;5017031;28;19932;-77
2024/03/31 02:58:04;;;;;;;;;;;12.00;99.90;;;;;;5016154;28;20753;-77
2024/03/31 03:00:30;;;;;;;;;;;12.00;99.90;;;;;;5016364;28;19924;-77
2024/03/31 03:02:56;;;;;;;;;;;12.00;99.90;;;;;;5034263;28;19920;-78
2024/03/31 03:05:21;;;;;;;;;;;12.00;99.90;;;;;;5017019;28;20253;-77
2024/03/31 03:07:47;;;;;;;;;;;12.00;99.90;;;;;;5033933;28;19956;-77
2024/03/31 03:10:12;;;;;;;;;;;11.90;99.90;;;;;;5018996;28;19921;-77
2024/03/31 03:12:38;;;;;;;;;;;11.90;99.90;;;;;;5033514;28;19928;-77
2024/03/31 03:15:04;;;;;;;;;;;11.80;99.90;;;;;;5017202;28;20027;-78
2024/03/31 03:17:29;;;;;;;;;;;11.80;99.90;;;;;;5034293;28;20345;-77
2024/03/31 03:19:55;;;;;;;;;;;11.70;99.90;;;;;;5017876;28;20356;-77
2024/03/31 03:22:21;;;;;;;;;;;11.70;99.90;;;;;;5016135;28;19916;-78
2024/03/31 03:24:46;;;;;;;;;;;11.70;99.90;;;;;;5042261;28;19920;-77
2024/03/31 03:27:12;;;;;;;;;;;11.60;99.90;;;;;;5031938;28;19928;-77
2024/03/31 03:29:38;;;;;;;;;;;11.70;99.90;;;;;;5045783;28;19932;-78
2024/03/31 03:32:03;;;;;;;;;;;11.60;99.90;;;;;;5049823;28;19917;-77
2024/03/31 03:34:29;;;;;;;;;;;11.70;99.90;;;;;;5046915;28;19917;-77
2024/03/31 03:36:54;;;;;;;;;;;11.60;99.90;;;;;;5034896;28;19975;-77
2024/03/31 03:39:20;;;;;;;;;;;11.50;99.90;;;;;;5031834;28;19944;-77
2024/03/31 03:41:46;;;;;;;;;;;11.50;99.90;;;;;;5026457;28;19913;-77
2024/03/31 03:44:11;;;;;;;;;;;11.50;99.90;;;;;;5015890;28;19913;-77
2024/03/31 03:46:37;;;;;;;;;;;11.60;99.90;;;;;;5032002;28;20508;-78
2024/03/31 03:49:03;;;;;;;;;;;11.60;99.90;;;;;;5031549;28;19926;-77
2024/03/31 03:51:28;;;;;;;;;;;11.60;99.90;;;;;;5034975;28;20228;-77
2024/03/31 03:53:54;;;;;;;;;;;11.60;99.90;;;;;;5016306;28;19921;-78
2024/03/31 03:56:21;;;;;;;;;;;11.60;99.90;;;;;;5023044;28;19917;-78
2024/03/31 03:58:47;;;;;;;;;;;11.60;99.90;;;;;;5022605;28;19959;-78
2024/03/31 04:01:12;;;;;;;;;;;11.60;99.90;;;;;;5016870;28;19960;-78
2024/03/31 04:03:38;;;;;;;;;;;11.60;99.90;;;;;;5028928;28;19917;-77
2024/03/31 04:06:04;;;;;;;;;;;11.60;99.90;;;;;;5014334;28;20373;-78
2024/03/31 04:08:30;;;;;;;;;;;11.50;99.90;;;;;;5019752;28;19955;-77
2024/03/31 04:10:56;;;;;;;;;;;11.50;99.90;;;;;;5017379;28;19957;-78
2024/03/31 04:13:21;;;;;;;;;;;11.50;99.90;;;;;;5008880;28;19913;-78
2024/03/31 04:15:59;;;;;;;;;;;11.50;99.90;;;;;;5006664;28;20616;-78
2024/03/31 04:18:25;;;;;;;;;;;11.50;99.90;;;;;;4994483;28;20533;-77
2024/03/31 04:20:51;;;;;;;;;;;11.50;99.90;;;;;;5027182;28;20000;-77
2024/03/31 04:23:16;;;;;;;;;;;11.50;99.90;;;;;;5013756;28;19913;-78
2024/03/31 04:25:42;;;;;;;;;;;11.50;99.90;;;;;;5032709;28;20281;-77
2024/03/31 04:28:07;;;;;;;;;;;11.40;99.90;;;;;;5013070;28;19929;-79
2024/03/31 04:30:40;;;;;;;;;;;11.40;99.90;;;;;;5004088;28;19924;-78
2024/03/31 04:33:06;;;;;;;;;;;11.40;99.90;;;;;;5021785;28;20020;-78
2024/03/31 04:35:38;;;;;;;;;;;11.30;99.90;;;;;;4996478;28;20004;-79
2024/03/31 04:38:03;;;;;;;;;;;11.30;99.90;;;;;;5007547;28;19992;-78
2024/03/31 04:40:29;;;;;;;;;;;11.30;99.90;;;;;;5009958;28;19957;-79
2024/03/31 04:42:55;;;;;;;;;;;11.20;99.90;;;;;;5013915;28;20000;-78
2024/03/31 04:45:20;;;;;;;;;;;11.20;99.90;;;;;;5013262;28;19914;-79
2024/03/31 04:47:46;;;;;;;;;;;11.20;99.90;;;;;;4996615;28;19913;-78
2024/03/31 04:50:11;;;;;;;;;;;11.20;99.90;;;;;;4994453;28;20257;-78
2024/03/31 04:52:37;;;;;;;;;;;11.20;99.90;;;;;;4995866;28;19918;-78
2024/03/31 04:55:03;;;;;;;;;;;11.20;99.90;;;;;;4984328;28;19984;-79
2024/03/31 04:57:28;;;;;;;;;;;11.20;99.90;;;;;;5010281;28;19929;-79
2024/03/31 04:59:54;;;;;;;;;;;11.20;99.90;;;;;;5026453;28;19925;-79
2024/03/31 05:02:19;;;;;;;;;;;11.10;99.90;;;;;;5039504;28;19951;-79
2024/03/31 05:04:45;;;;;;;;;;;11.20;99.90;;;;;;5032279;28;19964;-79
2024/03/31 05:07:11;;;;;;;;;;;11.20;99.90;;;;;;5044913;28;19913;-80
2024/03/31 05:09:37;;;;;;;;;;;11.20;99.90;;;;;;5019754;28;19917;-80
2024/03/31 05:12:04;;;;;;;;;;;11.20;99.90;;;;;;5052942;28;19917;-80
2024/03/31 05:14:29;;;;;;;;;;;11.20;99.90;;;;;;5036835;28;20531;-80
2024/03/31 05:16:55;;;;;;;;;;;11.20;99.90;;;;;;5031196;28;19979;-80
2024/03/31 05:19:21;;;;;;;;;;;11.30;99.90;;;;;;5051270;28;20620;-80
2024/03/31 05:21:46;;;;;;;;;;;11.20;99.90;;;;;;5024705;28;19917;-80
2024/03/31 05:24:13;;;;;;;;;;;11.20;99.90;;;;;;5035525;28;19920;-80
2024/03/31 05:26:39;;;;;;;;;;;11.10;99.90;;;;;;5035272;28;20000;-80
2024/03/31 05:29:05;;;;;;;;;;;10.90;99.90;;;;;;5035917;28;19917;-80
2024/03/31 05:31:30;;;;;;;;;;;11.00;99.90;;;;;;5035275;28;20037;-80
2024/03/31 05:33:57;;;;;;;;;;;11.10;99.90;;;;;;5034810;28;19917;-80
2024/03/31 05:36:23;;;;;;;;;;;10.90;99.90;;;;;;5036383;28;19917;-80
2024/03/31 05:38:49;;;;;;;;;;;10.80;99.90;;;;;;5018760;28;19943;-79
2024/03/31 05:41:15;;;;;;;;;;;10.90;99.90;;;;;;5034717;28;19913;-79
2024/03/31 05:43:40;;;;;;;;;;;10.80;99.90;;;;;;5038091;28;19936;-78
2024/03/31 05:46:07;;;;;;;;;;;10.90;99.90;;;;;;5026647;28;19970;-78
2024/03/31 05:48:32;;;;;;;;;;;11.00;99.90;;;;;;5050695;28;19913;-79
2024/03/31 05:50:58;;;;;;;;;;;10.90;99.90;;;;;;5034659;28;19923;-78
2024/03/31 05:53:23;;;;;;;;;;;11.00;99.90;;;;;;5051474;28;20545;-78
2024/03/31 05:55:49;;;;;;;;;;;11.10;99.90;;;;;;5042289;28;19920;-77
2024/03/31 05:58:15;;;;;;;;;;;11.10;99.90;;;;;;5031258;28;20422;-78
2024/03/31 06:00:40;;;;;;;;;;;11.10;99.90;;;;;;5028462;28;19928;-78
2024/03/31 06:03:06;;;;;;;;;;;11.20;99.90;;;;;;5017549;28;19917;-79
2024/03/31 06:05:31;;;;;;;;;;;11.10;99.90;;;;;;5019981;28;19916;-79
2024/03/31 06:07:57;;;;;;;;;;;11.20;99.90;;;;;;5021411;28;19999;-79
2024/03/31 06:10:23;;;;;;;;;;;11.20;99.90;;;;;;5037553;28;19927;-78
2024/03/31 06:12:48;;;;;;;;;;;11.20;99.90;;;;;;5046313;28;20247;-79
2024/03/31 06:15:14;;;;;;;;;;;11.20;99.90;;;;;;5040541;28;20653;-79
2024/03/31 06:17:40;;;;;;;;;;;11.20;99.90;;;;;;5038365;28;19959;-79
2024/03/31 06:20:07;;;;;;;;;;;11.20;99.90;;;;;;5038435;28;19913;-78
2024/03/31 06:22:37;;;;;;;;;;;11.20;99.90;;;;;;5038262;28;19947;-78
2024/03/31 06:25:03;;;;;;;;;;;11.20;99.90;;;;;;5038972;28;19931;-78
2024/03/31 06:27:28;;;;;;;;;;;11.10;99.90;;;;;;5046665;28;19998;-79
2024/03/31 06:29:54;;;;;;;;;;;11.10;99.90;;;;;;5047331;28;19917;-77
2024/03/31 06:32:20;;;;;;;;;;;11.10;99.90;;;;;;5032633;28;19956;-79
2024/03/31 06:34:45;;;;;;;;;;;11.00;99.90;;;;;;5037971;28;19982;-79
2024/03/31 06:37:11;;;;;;;;;;;11.00;99.90;;;;;;5051771;28;19916;-79
2024/03/31 06:39:37;;;;;;;;;;;11.00;99.90;;;;;;5034588;28;20293;-79
2024/03/31 06:42:03;;;;;;;;;;;10.90;99.90;;;;;;5030593;28;20574;-79
2024/03/31 06:44:30;;;;;;;;;;;11.00;99.90;;;;;;5064703;28;19921;-79
2024/03/31 06:46:56;;;;;;;;;;;11.00;99.90;;;;;;5064122;28;19999;-79
2024/03/31 06:49:22;;;;;;;;;;;11.00;99.90;;;;;;5041274;28;20126;-77
2024/03/31 06:51:47;;;;;;;;;;;11.00;99.90;;;;;;5037818;28;19924;-78
2024/03/31 06:54:13;;;;;;;;;;;11.00;99.90;;;;;;5030446;28;19927;-78
2024/03/31 06:56:38;;;;;;;;;;;11.10;99.90;;;;;;5053703;28;20003;-79
2024/03/31 06:59:04;;;;;;;;;;;11.00;99.90;;;;;;5037154;28;19951;-78
2024/03/31 07:01:30;;;;;;;;;;;11.10;99.90;;;;;;5020513;28;19917;-79
2024/03/31 07:03:55;;;;;;;;;;;11.10;99.90;;;;;;5037135;28;19917;-79
2024/03/31 07:06:21;;;;;;;;;;;11.10;99.90;;;;;;5021235;28;19913;-79
2024/03/31 07:08:46;;;;;;;;;;;11.00;99.90;;;;;;5040219;28;19913;-79
2024/03/31 07:11:12;;;;;;;;;;;11.00;99.90;;;;;;5037418;28;19916;-79
2024/03/31 07:13:38;;;;;;;;;;;11.00;99.90;;;;;;5045712;28;19927;-80
2024/03/31 07:16:03;;;;;;;;;;;11.00;99.90;;;;;;5022997;28;19970;-79
2024/03/31 07:18:29;;;;;;;;;;;11.10;99.90;;;;;;5020759;28;19971;-79
2024/03/31 07:20:55;;;;;;;;;;;11.10;99.90;;;;;;5029261;28;20292;-80
2024/03/31 07:23:21;;;;;;;;;;;11.10;99.90;;;;;;5054560;28;19996;-79
2024/03/31 07:25:46;;;;;;;;;;;11.10;99.90;;;;;;5006296;28;20517;-79
2024/03/31 07:28:12;;;;;;;;;;;11.30;99.90;;;;;;5039406;28;19913;-79
2024/03/31 07:30:38;;;;;;;;;;;11.10;99.90;;;;;;5036972;28;19971;-79
2024/03/31 07:33:04;;;;;;;;;;;11.00;99.90;;;;;;5063955;28;19920;-79
2024/03/31 07:35:30;;;;;;;;;;;11.00;99.90;;;;;;5067808;28;19924;-79
2024/03/31 07:37:56;;;;;;;;;;;11.00;99.90;;;;;;5039710;28;19920;-79
2024/03/31 07:40:21;;;;;;;;;;;11.00;99.90;;;;;;5038120;28;19912;-79
2024/03/31 07:42:47;;;;;;;;;;;11.10;99.90;;;;;;5054707;28;19916;-79
2024/03/31 07:45:13;;;;;;;;;;;11.20;99.90;;;;;;5033933;28;19924;-79
2024/03/31 07:47:39;;;;;;;;;;;11.10;99.90;;;;;;5042627;28;19913;-79
2024/03/31 07:50:05;;;;;;;;;;;11.20;99.90;;;;;;5022697;28;20026;-78
2024/03/31 07:52:31;;;;;;;;;;;11.20;99.90;;;;;;5052625;28;19916;-79
2024/03/31 07:54:57;;;;;;;;;;;11.30;99.90;;;;;;5053229;28;20337;-79
2024/03/31 07:57:23;;;;;;;;;;;11.30;99.90;;;;;;5037624;28;19912;-79
2024/03/31 07:59:49;;;;;;;;;;;11.30;99.90;;;;;;5020524;28;19983;-78
2024/03/31 08:02:14;;;;;;;;;;;11.30;99.90;;;;;;5054316;28;19928;-78
2024/03/31 08:04:40;;;;;;;;;;;11.30;99.90;;;;;;5036835;28;20007;-78
2024/03/31 08:07:06;;;;;;;;;;;11.30;99.90;;;;;;5056485;28;19939;-78
2024/03/31 08:09:32;;;;;;;;;;;11.20;99.90;;;;;;5040839;28;19927;-78
2024/03/31 08:11:57;;;;;;;;;;;11.20;99.90;;;;;;5043545;28;19921;-81
2024/03/31 08:14:23;;;;;;;;;;;11.30;99.90;;;;;;5021247;28;19932;-77
2024/03/31 08:16:48;;;;;;;;;;;11.30;99.90;;;;;;5034711;28;19925;-77
2024/03/31 08:19:14;;;;;;;;;;;11.30;99.90;;;;;;5000512;28;19927;-77
2024/03/31 08:21:40;;;;;;;;;;;11.40;99.90;;;;;;5034464;28;19912;-77
2024/03/31 08:24:05;;;;;;;;;;;11.30;99.90;;;;;;5046606;28;20394;-78
2024/03/31 08:26:31;;;;;;;;;;;11.40;99.90;;;;;;5042714;28;20368;-78
2024/03/31 08:28:57;;;;;;;;;;;11.40;99.90;;;;;;5046783;28;19951;-77
2024/03/31 08:31:22;;;;;;;;;;;11.40;99.90;;;;;;5041018;28;20245;-78
2024/03/31 08:33:48;;;;;;;;;;;11.40;99.90;;;;;;5039294;28;19921;-78
2024/03/31 08:36:14;;;;;;;;;;;11.40;99.90;;;;;;5044197;28;20418;-78
2024/03/31 08:38:39;;;;;;;;;;;11.40;99.90;;;;;;5028326;28;19917;-77
2024/03/31 08:41:05;;;;;;;;;;;11.40;99.90;;;;;;5047321;28;20205;-77
2024/03/31 08:43:33;;;;;;;;;;;11.40;99.90;;;;;;5053899;28;19920;-77
2024/03/31 08:45:58;;;;;;;;;;;11.40;99.90;;;;;;5039977;28;20299;-78
2024/03/31 08:48:25;;;;;;;;;;;11.50;99.90;;;;;;5005854;28;20344;-77
2024/03/31 08:50:51;;;;;;;;;;;11.50;99.90;;;;;;5056744;28;19920;-77
2024/03/31 08:53:17;;;;;;;;;;;11.50;99.90;;;;;;5040315;28;19913;-77
2024/03/31 08:55:43;;;;;;;;;;;11.60;99.90;;;;;;5022583;28;19926;-77
2024/03/31 08:58:09;;;;;;;;;;;11.50;99.90;;;;;;5011441;28;19928;-77
2024/03/31 09:00:36;;;;;;;;;;;11.60;99.90;;;;;;5035988;28;19921;-77
2024/03/31 09:03:02;;;;;;;;;;;11.70;99.90;;;;;;5016999;28;20333;-77
2024/03/31 09:05:28;;;;;;;;;;;11.80;99.90;;;;;;5017735;28;19917;-77
2024/03/31 09:07:53;;;;;;;;;;;11.90;99.90;;;;;;5054340;28;19924;-77
2024/03/31 09:10:20;;;;;;;;;;;11.90;99.90;;;;;;5023286;28;20043;-77
2024/03/31 09:12:46;;;;;;;;;;;12.00;99.90;;;;;;5025348;28;19959;-78
2024/03/31 09:15:11;;;;;;;;;;;12.10;99.90;;;;;;5036730;28;20353;-77
2024/03/31 09:17:37;;;;;;;;;;;12.20;99.90;;;;;;5035813;28;19920;-77
2024/03/31 09:20:02;;;;;;;;;;;12.20;99.90;;;;;;5036604;28;19920;-77
2024/03/31 09:22:28;;;;;;;;;;;12.20;99.90;;;;;;5035590;28;20225;-77
2024/03/31 09:24:54;;;;;;;;;;;12.30;99.90;;;;;;5017965;28;19977;-78
2024/03/31 09:27:20;;;;;;;;;;;12.30;99.90;;;;;;5019379;28;19985;-77
2024/03/31 09:29:46;;;;;;;;;;;12.40;99.90;;;;;;5035165;28;19917;-77
2024/03/31 09:32:13;;;;;;;;;;;12.30;99.90;;;;;;5029471;28;19975;-79
2024/03/31 09:34:44;;;;;;;;;;;12.50;99.90;;;;;;5032970;28;19928;-78
2024/03/31 09:37:10;;;;;;;;;;;12.60;99.90;;;;;;5013881;28;19918;-78
2024/03/31 09:39:36;;;;;;;;;;;12.70;99.90;;;;;;5010339;28;20047;-79
2024/03/31 09:42:02;;;;;;;;;;;12.90;99.90;;;;;;5007537;28;19965;-78
2024/03/31 09:44:28;;;;;;;;;;;13.00;99.90;;;;;;5013476;28;19917;-78
2024/03/31 09:46:56;;;;;;;;;;;13.00;99.90;;;;;;5055887;28;19945;-79
2024/03/31 09:49:28;;;;;;;;;;;13.10;99.90;;;;;;5020246;28;19923;-79
2024/03/31 09:51:59;;;;;;;;;;;13.20;99.90;;;;;;5042524;28;19925;-79
2024/03/31 09:54:32;;;;;;;;;;;13.40;99.90;;;;;;5019085;28;19931;-79
2024/03/31 09:57:00;;;;;;;;;;;13.40;99.90;;;;;;5044134;28;19921;-79
2024/03/31 09:59:32;;;;;;;;;;;13.40;99.90;;;;;;5023717;28;19960;-79
2024/03/31 10:01:57;;;;;;;;;;;13.50;99.90;;;;;;5010238;28;20280;-80
2024/03/31 10:04:43;;;;;;;;;;;13.60;99.90;;;;;;5011912;28;19917;-80
2024/03/31 10:07:09;;;;;;;;;;;13.80;99.90;;;;;;5038147;28;19944;-80
2024/03/31 10:09:37;;;;;;;;;;;13.90;99.90;;;;;;5041108;28;19916;-80
2024/03/31 10:12:03;;;;;;;;;;;14.00;99.90;;;;;;5020420;28;19928;-80
2024/03/31 10:14:29;;;;;;;;;;;14.00;99.90;;;;;;5019172;28;19921;-79
2024/03/31 10:16:59;;;;;;;;;;;14.10;99.90;;;;;;5046970;28;19922;-79
2024/03/31 10:19:24;;;;;;;;;;;14.30;99.90;;;;;;5040887;28;19917;-79
2024/03/31 10:21:50;;;;;;;;;;;14.40;99.90;;;;;;5053332;28;19947;-79
2024/03/31 10:24:18;;;;;;;;;;;14.50;99.90;;;;;;5011685;28;19913;-79
2024/03/31 10:26:49;;;;;;;;;;;14.70;99.90;;;;;;5051145;28;20776;-79
2024/03/31 10:29:16;;;;;;;;;;;14.80;99.90;;;;;;5022768;28;19925;-79
2024/03/31 10:31:41;;;;;;;;;;;15.00;99.90;;;;;;5017882;28;19927;-79
2024/03/31 10:34:07;;;;;;;;;;;15.10;99.90;;;;;;5050685;28;19921;-79
2024/03/31 10:36:33;;;;;;;;;;;15.30;99.90;;;;;;5054187;28;19999;-79
2024/03/31 10:38:59;;;;;;;;;;;15.40;99.90;;;;;;5050238;28;20365;-79
2024/03/31 10:41:24;;;;;;;;;;;15.30;99.90;;;;;;5027339;28;19953;-79
2024/03/31 10:43:50;;;;;;;;;;;15.40;99.90;;;;;;5018477;28;19974;-79
2024/03/31 10:46:16;;;;;;;;;;;15.20;99.90;;;;;;5026126;28;19947;-79
2024/03/31 10:48:42;;;;;;;;;;;15.30;99.90;;;;;;5017604;28;20035;-79
2024/03/31 10:51:14;;;;;;;;;;;15.40;99.90;;;;;;5018326;28;19948;-79
2024/03/31 10:53:45;;;;;;;;;;;15.40;99.90;;;;;;5034906;28;19916;-79
2024/03/31 10:56:11;;;;;;;;;;;15.90;99.90;;;;;;5047600;28;20201;-79
2024/03/31 10:58:42;;;;;;;;;;;16.00;99.90;;;;;;5033932;28;20330;-79
2024/03/31 11:01:15;;;;;;;;;;;16.10;99.90;;;;;;4996911;28;19929;-79
2024/03/31 11:03:41;;;;;;;;;;;16.00;99.90;;;;;;5029776;28;19917;-79
2024/03/31 11:06:11;;;;;;;;;;;16.20;99.90;;;;;;5014024;28;19924;-79
2024/03/31 11:08:37;;;;;;;;;;;16.20;99.90;;;;;;5030567;28;20001;-79
2024/03/31 11:11:03;;;;;;;;;;;16.40;99.90;;;;;;5009663;28;20003;-79
2024/03/31 11:13:30;;;;;;;;;;;16.60;99.90;;;;;;5051106;28;19917;-78
2024/03/31 11:15:56;;;;;;;;;;;16.70;99.90;;;;;;5018000;28;19917;-79
2024/03/31 11:18:21;;;;;;;;;;;16.80;99.90;;;;;;5036017;28;19952;-79
2024/03/31 11:20:50;;;;;;;;;;;16.70;99.90;;;;;;5000276;28;19960;-79
2024/03/31 11:23:16;;;;;;;;;;;16.90;99.90;;;;;;5004616;28;20004;-79
2024/03/31 11:25:41;;;;;;;;;;;17.00;99.90;;;;;;5016753;28;19967;-79
2024/03/31 11:28:14;;;;;;;;;;;16.90;99.90;;;;;;5014095;28;20345;-79
2024/03/31 11:30:39;;;;;;;;;;;17.00;99.90;;;;;;5030647;28;19979;-79
2024/03/31 11:33:06;;;;;;;;;;;17.20;99.90;;;;;;5033714;28;19916;-79
2024/03/31 11:35:33;;;;;;;;;;;17.30;99.90;;;;;;4996429;28;19917;-79
2024/03/31 11:38:16;;;;;;;;;;;17.20;99.90;;;;;;5013726;28;19917;-79
2024/03/31 11:40:41;;;;;;;;;;;17.00;99.90;;;;;;4997364;28;20352;-78
2024/03/31 11:43:08;;;;;;;;;;;17.10;99.90;;;;;;4998103;28;19913;-78
2024/03/31 11:45:36;;;;;;;;;;;17.30;99.90;;;;;;5027707;28;19917;-78
2024/03/31 11:48:03;;;;;;;;;;;17.10;99.90;;;;;;5000948;28;19918;-78
2024/03/31 11:50:29;;;;;;;;;;;17.20;99.90;;;;;;5030474;28;19917;-79
2024/03/31 11:52:55;;;;;;;;;;;17.30;99.90;;;;;;5013431;28;19924;-78
2024/03/31 11:55:21;;;;;;;;;;;17.30;99.90;;;;;;5002027;28;19921;-78
2024/03/31 11:57:47;;;;;;;;;;;17.40;99.90;;;;;;5014545;28;20246;-79
2024/03/31 12:00:13;;;;;;;;;;;17.50;99.90;;;;;;5016627;28;19936;-79
2024/03/31 12:02:38;;;;;;;;;;;17.70;99.90;;;;;;5050102;28;19925;-79
2024/03/31 12:05:06;;;;;;;;;;;17.80;99.90;;;;;;5039670;28;19978;-79
2024/03/31 12:07:31;;;;;;;;;;;17.70;99.90;;;;;;5040352;28;20311;-79
2024/03/31 12:09:57;;;;;;;;;;;17.70;99.90;;;;;;5053527;28;19917;-79
2024/03/31 12:12:22;;;;;;;;;;;17.60;99.90;;;;;;5022327;28;19913;-77
2024/03/31 12:14:48;;;;;;;;;;;17.50;99.90;;;;;;5022270;28;19952;-79
2024/03/31 12:17:14;;;;;;;;;;;17.40;99.90;;;;;;5004424;28;19988;-79
2024/03/31 12:19:39;;;;;;;;;;;17.40;99.90;;;;;;5037483;28;19962;-78
2024/03/31 12:22:06;;;;;;;;;;;17.20;99.90;;;;;;5039735;28;19913;-79
2024/03/31 12:24:32;;;;;;;;;;;17.10;99.90;;;;;;5062107;28;19913;-78
2024/03/31 12:26:58;;;;;;;;;;;16.80;99.90;;;;;;5037957;28;20629;-79
2024/03/31 12:29:23;;;;;;;;;;;16.80;99.90;;;;;;5037303;28;19928;-78
2024/03/31 12:31:49;;;;;;;;;;;16.90;99.90;;;;;;5046224;28;20018;-79
2024/03/31 12:34:15;;;;;;;;;;;16.90;99.90;;;;;;5038659;28;19917;-78
2024/03/31 12:36:40;;;;;;;;;;;16.80;99.90;;;;;;5039999;28;19919;-78
2024/03/31 12:39:08;;;;;;;;;;;16.60;99.90;;;;;;5045494;28;19956;-78
2024/03/31 12:41:33;;;;;;;;;;;16.40;99.90;;;;;;5031038;28;20262;-78
2024/03/31 12:44:03;;;;;;;;;;;16.40;99.90;;;;;;5036840;28;19960;-78
2024/03/31 12:46:28;;;;;;;;;;;16.50;99.90;;;;;;5034144;28;19924;-78
2024/03/31 12:48:54;;;;;;;;;;;16.50;99.90;;;;;;5044303;28;20241;-78
2024/03/31 12:51:20;;;;;;;;;;;16.50;99.90;;;;;;5029842;28;19956;-78
2024/03/31 12:53:46;;;;;;;;;;;16.40;99.90;;;;;;5033056;28;19948;-78
2024/03/31 12:56:12;;;;;;;;;;;16.40;99.90;;;;;;5056308;28;20321;-79
2024/03/31 12:58:37;;;;;;;;;;;16.40;99.90;;;;;;5036071;28;19964;-78
2024/03/31 13:01:03;;;;;;;;;;;16.40;99.90;;;;;;5035995;28;20007;-78
2024/03/31 13:03:29;;;;;;;;;;;16.40;99.90;;;;;;5021113;28;19921;-77
2024/03/31 13:05:56;;;;;;;;;;;16.40;99.90;;;;;;5037217;28;19995;-78
2024/03/31 13:08:21;;;;;;;;;;;16.50;99.90;;;;;;5035676;28;19913;-77
2024/03/31 13:10:47;;;;;;;;;;;16.60;99.90;;;;;;5046190;28;19912;-78
2024/03/31 13:13:14;;;;;;;;;;;16.60;99.90;;;;;;5036213;28;19917;-78
2024/03/31 13:15:40;;;;;;;;;;;16.70;99.90;;;;;;5025807;28;20019;-78
2024/03/31 13:18:06;;;;;;;;;;;16.70;99.90;;;;;;4984504;28;19952;-78
2024/03/31 13:20:32;;;;;;;;;;;16.70;99.90;;;;;;5013538;28;19913;-77
2024/03/31 13:22:57;;;;;;;;;;;16.70;99.90;;;;;;5019658;28;19979;-78
2024/03/31 13:25:23;;;;;;;;;;;16.80;99.90;;;;;;5016479;28;20409;-78
2024/03/31 13:27:49;;;;;;;;;;;16.80;99.90;;;;;;5016915;28;19917;-77
2024/03/31 13:30:14;;;;;;;;;;;17.00;99.90;;;;;;5029643;28;20038;-79
2024/03/31 13:32:40;;;;;;;;;;;17.20;99.90;;;;;;5004939;28;19917;-78
2024/03/31 13:35:06;;;;;;;;;;;17.20;99.90;;;;;;5011322;28;19920;-78
2024/03/31 13:37:31;;;;;;;;;;;17.20;99.90;;;;;;5052054;28;19924;-78
2024/03/31 13:39:57;;;;;;;;;;;17.30;99.90;;;;;;5036088;28;20310;-78
2024/03/31 13:42:23;;;;;;;;;;;17.50;99.90;;;;;;5037737;28;20329;-77
2024/03/31 13:44:48;;;;;;;;;;;17.70;99.90;;;;;;5052637;28;19922;-79
2024/03/31 13:47:14;;;;;;;;;;;18.20;99.90;;;;;;5035297;28;19918;-79
2024/03/31 13:49:40;;;;;;;;;;;18.60;99.90;;;;;;5045985;28;19912;-79
2024/03/31 13:52:05;;;;;;;;;;;19.20;99.90;;;;;;5026103;28;19948;-80
2024/03/31 13:54:31;;;;;;;;;;;19.50;99.90;;;;;;5030840;28;19947;-79
2024/03/31 13:56:57;;;;;;;;;;;19.70;99.90;;;;;;5024216;28;19917;-79
2024/03/31 13:59:22;;;;;;;;;;;19.90;99.80;;;;;;5031415;28;19924;-79
2024/03/31 14:01:48;;;;;;;;;;;20.30;99.90;;;;;;5042642;28;19917;-79
2024/03/31 14:04:15;;;;;;;;;;;20.70;99.90;;;;;;5043510;28;19948;-80
2024/03/31 14:06:41;;;;;;;;;;;20.60;98.40;;;;;;5060874;28;19924;-79
2024/03/31 14:09:07;;;;;;;;;;;20.60;98.40;;;;;;5028778;28;19913;-80